Watonga, OK

7:12 AM CST on February 11, 2016 (GMT -0600)
Watonga

Weather History for KJWG - December, 2014

Change the Weather History Date:

Monday, December 15, 2014

  Actual Average Record
Temperature  
Mean Temperature 43 °F -  
Max Temperature 50 °F 46 °F 69 °F (1977)
Min Temperature 36 °F 25 °F -2 °F (1989)
Degree Days  
Heating Degree Days 22    
Moisture  
Dew Point 34 °F    
Average Humidity 69    
Maximum Humidity 86    
Minimum Humidity 49    
Precipitation  
Precipitation 0.00 in - - ()
Sea Level Pressure  
Sea Level Pressure 29.91 in    
Wind  
Wind Speed 17 mph (WNW)    
Max Wind Speed 29 mph    
Max Gust Speed 34 mph    
Visibility 10 miles    
Events      
Averages and records for this station are not official NWS values.
T = Trace of Precipitation, MM = Missing Value Source: NWS Daily Summary

Daily Weather History Graph

Daily Weather History Graph

Search for Another Location

Airport or City:

Trip Planner

Search our weather history database for the weather conditions in past years. The results will help you decide how hot, cold, wet, or windy it might be!

Date:

Astronomy

Dec. 15, 2014 Rise Set
Actual Time 7:36 AM CST 5:21 PM CST
Civil Twilight 7:08 AM CST 5:49 PM CST
Nautical Twilight 6:36 AM CST 6:21 PM CST
Astronomical Twilight 6:04 AM CST 6:52 PM CST
Moon 1:07 AM CST (12/15) 1:11 PM CST (12/15)
Length of Visible Light 10h 41m
Length of Day
9h 44m
Last Quarter, 39% of the Moon is Illuminated
Dec 15
Last Quarter
Dec 21
New
Dec 28
First Quarter
Jan 4
Full
Jan 13
Last Quarter

Hourly Weather History & Observations

Time (CST) Temp. Windchill Dew Point Humidity Pressure Visibility Wind Dir Wind Speed Gust Speed Precip Events Conditions
12:15 AM 49.3 °F - 40.5 °F 72% 29.66 in 10.0 mi WSW 13.8 mph - N/A   Clear
12:35 AM 48.7 °F - 40.8 °F 74% 29.66 in 10.0 mi WSW 13.8 mph 23.0 mph N/A   Clear
12:55 AM 48.2 °F - 41.0 °F 76% 29.67 in 10.0 mi WSW 13.8 mph 20.7 mph N/A   Clear
1:15 AM 47.7 °F - 40.8 °F 77% 29.67 in 10.0 mi WSW 16.1 mph 19.6 mph N/A   Clear
1:35 AM 47.3 °F - 40.6 °F 78% 29.68 in 10.0 mi WSW 16.1 mph 24.2 mph N/A   Clear
1:55 AM 46.4 °F 40.1 °F 40.6 °F 80% 29.69 in 10.0 mi WSW 15.0 mph 19.6 mph N/A   Clear
2:15 AM 45.9 °F 39.1 °F 40.6 °F 82% 29.70 in 10.0 mi WSW 16.1 mph 24.2 mph N/A   Clear
2:35 AM 45.5 °F 39.2 °F 41.0 °F 84% 29.70 in 10.0 mi WSW 13.8 mph - N/A   Clear
2:55 AM 45.0 °F 38.5 °F 40.6 °F 85% 29.71 in 10.0 mi WSW 13.8 mph - N/A   Clear
3:15 AM 45.3 °F 38.1 °F 41.0 °F 85% 29.71 in 10.0 mi West 17.3 mph 21.9 mph N/A   Clear
3:35 AM 45.0 °F 38.5 °F 40.6 °F 85% 29.73 in 10.0 mi West 13.8 mph 19.6 mph N/A   Clear
3:55 AM 44.6 °F 37.8 °F 39.6 °F 82% 29.73 in 10.0 mi West 15.0 mph 21.9 mph N/A   Clear
4:15 AM 44.4 °F 37.5 °F 39.9 °F 84% 29.74 in 10.0 mi West 15.0 mph 19.6 mph N/A   Mostly Cloudy
4:35 AM 45.0 °F 37.6 °F 40.1 °F 83% 29.74 in 10.0 mi West 17.3 mph 24.2 mph N/A   Overcast
4:55 AM 45.5 °F 37.8 °F 39.9 °F 81% 29.74 in 10.0 mi West 19.6 mph 24.2 mph N/A   Overcast
5:15 AM 45.3 °F 37.3 °F 39.4 °F 80% 29.75 in 10.0 mi West 20.7 mph 25.3 mph N/A   Mostly Cloudy
5:35 AM 43.9 °F 36.2 °F 38.5 °F 81% 29.75 in 10.0 mi WNW 17.3 mph 21.9 mph N/A   Scattered Clouds
5:55 AM 43.3 °F 34.7 °F 38.3 °F 82% 29.75 in 10.0 mi WNW 20.7 mph 29.9 mph N/A   Scattered Clouds
6:15 AM 42.4 °F 33.8 °F 37.8 °F 83% 29.76 in 10.0 mi West 19.6 mph 25.3 mph N/A   Clear
6:35 AM 41.5 °F 35.0 °F 37.6 °F 86% 29.77 in 10.0 mi West 11.5 mph - N/A   Scattered Clouds
6:55 AM 42.4 °F 32.8 °F 37.4 °F 82% 29.78 in 10.0 mi WNW 24.2 mph 27.6 mph N/A   Scattered Clouds
7:15 AM 43.2 °F 34.5 °F 37.4 °F 80% 29.79 in 10.0 mi West 20.7 mph 32.2 mph N/A   Mostly Cloudy
7:35 AM 42.8 °F 34.8 °F 37.4 °F 81% 29.81 in 10.0 mi WNW 17.3 mph 28.8 mph N/A   Overcast
7:55 AM 42.3 °F 32.8 °F 36.9 °F 81% 29.81 in 10.0 mi WNW 23.0 mph 32.2 mph N/A   Overcast
8:15 AM 42.4 °F 33.5 °F 36.5 °F 79% 29.82 in 10.0 mi WNW 20.7 mph 26.5 mph N/A   Overcast
8:35 AM 42.3 °F 33.3 °F 36.3 °F 79% 29.83 in 10.0 mi WNW 20.7 mph 32.2 mph N/A   Overcast
8:55 AM 42.4 °F 33.1 °F 36.5 °F 79% 29.84 in 10.0 mi West 23.0 mph 29.9 mph N/A   Overcast
9:15 AM 41.9 °F 31.9 °F 36.0 °F 79% 29.85 in 10.0 mi WNW 25.3 mph 32.2 mph N/A   Overcast
9:35 AM 42.4 °F 33.1 °F 36.0 °F 78% 29.87 in 10.0 mi NW 23.0 mph 31.1 mph N/A   Overcast
9:55 AM 42.8 °F 34.0 °F 35.6 °F 76% 29.88 in 10.0 mi WNW 20.7 mph 29.9 mph N/A   Overcast
10:15 AM 43.9 °F 34.7 °F 36.0 °F 74% 29.89 in 10.0 mi WNW 24.2 mph 32.2 mph N/A   Scattered Clouds
10:35 AM 44.4 °F 35.3 °F 35.4 °F 71% 29.89 in 10.0 mi WNW 25.3 mph 32.2 mph N/A   Clear
10:55 AM 45.0 °F 35.4 °F 35.1 °F 68% 29.90 in 10.0 mi WNW 28.8 mph 33.4 mph N/A   Clear
11:15 AM 45.5 °F 36.1 °F 34.9 °F 66% 29.91 in 10.0 mi WNW 28.8 mph 34.5 mph N/A   Clear
11:35 AM 45.9 °F 38.0 °F 35.4 °F 67% 29.91 in 10.0 mi WNW 20.7 mph 35.7 mph N/A   Clear
11:55 AM 46.6 °F - 35.4 °F 65% 29.91 in 10.0 mi WNW 25.3 mph 33.4 mph N/A   Clear
12:15 PM 46.9 °F - 35.1 °F 63% 29.91 in 10.0 mi WNW 25.3 mph 31.1 mph N/A   Clear
12:35 PM 47.8 °F - 35.2 °F 62% 29.90 in 10.0 mi WNW 27.6 mph 31.1 mph N/A   Clear
12:55 PM 48.4 °F - 34.2 °F 58% 29.91 in 10.0 mi WNW 21.9 mph 31.1 mph N/A   Clear
1:15 PM 49.1 °F - 34.5 °F 57% 29.92 in 10.0 mi WNW 21.9 mph 32.2 mph N/A   Clear
1:35 PM 49.3 °F - 33.8 °F 55% 29.92 in 10.0 mi WNW 21.9 mph 29.9 mph N/A   Scattered Clouds
1:55 PM 50.2 °F - 32.7 °F 51% 29.92 in 10.0 mi WNW 21.9 mph 28.8 mph N/A   Scattered Clouds
2:15 PM 50.4 °F - 32.4 °F 50% 29.92 in 10.0 mi WNW 19.6 mph 27.6 mph N/A   Clear
2:35 PM 50.4 °F - 32.0 °F 49% 29.92 in 10.0 mi NW 18.4 mph 26.5 mph N/A   Clear
2:55 PM 50.2 °F - 32.0 °F 50% 29.94 in 10.0 mi NW 16.1 mph 32.2 mph N/A   Clear
3:15 PM 50.2 °F - 32.0 °F 50% 29.95 in 10.0 mi NW 18.4 mph 32.2 mph N/A   Clear
3:35 PM 50.0 °F - 32.0 °F 50% 29.95 in 10.0 mi NW 18.4 mph 23.0 mph N/A   Clear
3:55 PM 50.0 °F - 32.2 °F 50% 29.97 in 10.0 mi WNW 21.9 mph 29.9 mph N/A   Clear
4:15 PM 49.5 °F - 32.0 °F 51% 29.98 in 10.0 mi NW 20.7 mph 28.8 mph N/A   Clear
4:35 PM 48.6 °F - 31.6 °F 52% 30.00 in 10.0 mi NW 20.7 mph 26.5 mph N/A   Clear
4:55 PM 47.7 °F - 31.6 °F 54% 30.01 in 10.0 mi NW 15.0 mph 24.2 mph N/A   Clear
5:15 PM 46.4 °F 40.7 °F 31.1 °F 55% 30.02 in 10.0 mi NW 12.7 mph 20.7 mph N/A   Clear
5:35 PM 45.3 °F 40.1 °F 30.7 °F 57% 30.03 in 10.0 mi NW 10.4 mph 21.9 mph N/A   Clear
5:55 PM 44.6 °F 37.8 °F 30.6 °F 58% 30.04 in 10.0 mi WNW 15.0 mph 23.0 mph N/A   Clear
6:15 PM 42.8 °F 37.5 °F 30.9 °F 63% 30.06 in 10.0 mi NW 9.2 mph - N/A   Clear
6:35 PM 42.8 °F 37.0 °F 30.6 °F 62% 30.06 in 10.0 mi NW 10.4 mph - N/A   Clear
6:55 PM 41.4 °F 35.7 °F 30.7 °F 66% 30.07 in 10.0 mi WNW 9.2 mph - N/A   Clear
7:15 PM 41.0 °F 34.7 °F 30.7 °F 67% 30.08 in 10.0 mi WNW 10.4 mph - N/A   Clear
7:35 PM 40.5 °F 33.6 °F 30.6 °F 68% 30.09 in 10.0 mi WNW 11.5 mph 19.6 mph N/A   Clear
7:55 PM 41.9 °F 33.4 °F 29.5 °F 61% 30.10 in 10.0 mi WNW 18.4 mph 25.3 mph N/A   Clear
8:15 PM 41.4 °F 33.6 °F 29.8 °F 64% 30.11 in 10.0 mi NW 15.0 mph 23.0 mph N/A   Scattered Clouds
8:35 PM 40.1 °F 30.5 °F 28.2 °F 63% 30.12 in 10.0 mi NW 20.7 mph 25.3 mph N/A   Scattered Clouds
8:55 PM 39.2 °F 31.2 °F 28.2 °F 65% 30.13 in 10.0 mi NW 13.8 mph 20.7 mph N/A   Clear
9:15 PM 38.5 °F 31.6 °F 28.4 °F 67% 30.14 in 10.0 mi NW 10.4 mph 19.6 mph N/A   Scattered Clouds
9:35 PM 38.3 °F 30.1 °F 28.9 °F 69% 30.15 in 10.0 mi WNW 13.8 mph 21.9 mph N/A   Mostly Cloudy
9:55 PM 39.0 °F 28.5 °F 28.4 °F 66% 30.15 in 10.0 mi NW 23.0 mph 26.5 mph N/A   Mostly Cloudy
10:15 PM 38.5 °F 28.9 °F 27.7 °F 65% 30.16 in 10.0 mi NNW 18.4 mph 27.6 mph N/A   Scattered Clouds
10:35 PM 37.4 °F 29.3 °F 27.0 °F 66% 30.18 in 10.0 mi NW 12.7 mph 20.7 mph N/A   Scattered Clouds
10:55 PM 36.7 °F 28.0 °F 27.5 °F 69% 30.19 in 10.0 mi NW 13.8 mph 17.3 mph N/A   Clear
11:15 PM 36.5 °F 28.2 °F 27.9 °F 71% 30.19 in 10.0 mi NW 12.7 mph 19.6 mph N/A   Clear
11:35 PM 36.5 °F 28.2 °F 28.0 °F 71% 30.19 in 10.0 mi NW 12.7 mph 20.7 mph N/A   Clear
11:55 PM 36.0 °F 27.5 °F 28.0 °F 73% 30.19 in 10.0 mi WNW 12.7 mph - N/A   Clear